Red Wing, Minnesota
Current Conditions -  °F | °C
As of 10:31 AM on Saturday 20 Dec 2014 (Local Time) from KRGK Reporting Station
Haze Haze  
Wind Chill: 26°   Ceiling: 1100
Heat Index: 32°   Visibility: 5mi
Dew Point: 27°   Wind: 6mph
Humidity: 80%   Direction: 150°SSE
Pressure: 30.17"   Gusts: NA
Location:  44.57°N, 92.53°W
Report Text: KRGK 201631Z AUTO 15005KT 5SM HZ OVC011 00/M03 A3017 RMK AO2
Loading
Personal Weather Stations






























Interactive Weather Map New forecast layout! Learn more

10-Day Weather Forecast

Advertisements
Track Severe Weather on mobile